createdAt,value
2022-10-18T00:01:01.352Z,95.16
2022-10-18T00:03:46.927Z,94.68
2022-10-18T00:06:32.123Z,95.38
2022-10-18T00:09:17.510Z,95.36
2022-10-18T00:12:03.052Z,95.13
2022-10-18T00:14:50.987Z,95.04
2022-10-18T00:17:37.051Z,94.67
2022-10-18T00:20:22.718Z,94.75
2022-10-18T00:23:07.923Z,95.21
2022-10-18T00:26:20.637Z,95.58
2022-10-18T00:29:07.239Z,95.16
2022-10-18T00:31:52.584Z,95.30
2022-10-18T00:34:39.974Z,95.24
2022-10-18T00:37:25.701Z,94.87
2022-10-18T00:40:11.452Z,95.35
2022-10-18T00:42:57.171Z,94.99
2022-10-18T00:45:42.641Z,94.73
2022-10-18T00:48:28.452Z,94.81
2022-10-18T00:51:15.238Z,94.68
2022-10-18T00:54:00.815Z,94.91
2022-10-18T00:56:46.554Z,95.69
2022-10-18T00:59:32.567Z,94.81
2022-10-18T01:02:18.964Z,94.97
2022-10-18T01:05:05.073Z,95.23
2022-10-18T01:08:17.239Z,94.84
2022-10-18T01:11:05.814Z,95.59
2022-10-18T01:14:17.626Z,95.42
2022-10-18T01:17:37.457Z,94.81
2022-10-18T01:20:55.062Z,94.82
2022-10-18T01:24:01.946Z,94.98
2022-10-18T01:27:24.770Z,94.79
2022-10-18T01:30:35.055Z,94.72
2022-10-18T01:33:55.869Z,95.48
2022-10-18T01:36:44.506Z,95.58
2022-10-18T01:39:35.577Z,95.15
2022-10-18T01:42:21.504Z,95.39
2022-10-18T01:45:09.388Z,95.29
2022-10-18T01:47:55.324Z,95.13
2022-10-18T01:50:40.630Z,95.58
2022-10-18T01:53:29.944Z,95.49
2022-10-18T01:56:21.332Z,95.16
2022-10-18T01:59:32.889Z,94.95
2022-10-18T02:02:21.507Z,95.09
2022-10-18T02:05:17.148Z,95.08
2022-10-18T02:08:23.297Z,95.56
2022-10-18T02:11:12.940Z,95.05
2022-10-18T02:14:05.847Z,95.63
2022-10-18T02:16:55.108Z,95.50
2022-10-18T02:20:01.607Z,94.93
2022-10-18T02:22:50.809Z,95.08
2022-10-18T02:25:36.876Z,95.26
2022-10-18T02:28:22.519Z,95.37
2022-10-18T02:31:14.198Z,95.46
2022-10-18T02:34:07.258Z,95.19
2022-10-18T02:36:55.426Z,95.20
2022-10-18T02:39:46.494Z,95.03
2022-10-18T02:42:39.416Z,95.57
2022-10-18T02:45:26.412Z,94.97
2022-10-18T02:48:11.786Z,95.61
2022-10-18T02:50:57.249Z,95.01
2022-10-18T02:53:42.883Z,94.76
2022-10-18T02:56:28.926Z,95.34
2022-10-18T02:59:14.327Z,94.72
2022-10-18T03:01:59.466Z,94.75
2022-10-18T03:04:45.051Z,95.30
2022-10-18T03:07:30.717Z,95.43
2022-10-18T03:10:16.614Z,95.38
2022-10-18T03:13:01.990Z,95.45
2022-10-18T03:15:48.442Z,95.06
2022-10-18T03:18:33.789Z,95.25
2022-10-18T03:21:19.149Z,95.43
2022-10-18T03:24:04.818Z,95.33
2022-10-18T03:26:50.180Z,95.05
2022-10-18T03:29:35.579Z,95.25
2022-10-18T03:32:21.123Z,95.19
2022-10-18T03:35:07.878Z,95.00
2022-10-18T03:37:53.771Z,95.60
2022-10-18T03:40:39.194Z,95.25
2022-10-18T03:43:25.069Z,95.05
2022-10-18T03:46:10.610Z,95.01
2022-10-18T03:48:55.906Z,95.17
2022-10-18T03:51:41.533Z,95.08
2022-10-18T03:54:26.942Z,94.86
2022-10-18T03:57:12.434Z,95.08
2022-10-18T03:59:58.102Z,94.86
2022-10-18T04:02:43.437Z,95.41
2022-10-18T04:05:30.979Z,95.06
2022-10-18T04:08:16.874Z,95.21
2022-10-18T04:11:08.462Z,95.29
2022-10-18T04:13:53.754Z,95.31
2022-10-18T04:16:39.376Z,95.14
2022-10-18T04:19:24.775Z,95.43
2022-10-18T04:22:12.290Z,94.83
2022-10-18T04:24:57.779Z,95.40
2022-10-18T04:27:43.478Z,95.48
2022-10-18T04:30:28.693Z,95.53
2022-10-18T04:33:14.151Z,94.98
2022-10-18T04:35:59.621Z,95.31
2022-10-18T04:38:45.082Z,95.38
2022-10-18T04:41:30.639Z,95.50
2022-10-18T04:44:16.040Z,95.29
2022-10-18T04:47:01.861Z,95.10
2022-10-18T04:49:47.374Z,95.01
2022-10-18T04:52:33.059Z,95.48
2022-10-18T04:55:18.652Z,95.54
2022-10-18T04:58:04.196Z,95.09
2022-10-18T05:00:50.319Z,95.56
2022-10-18T05:03:35.894Z,95.29
2022-10-18T05:06:22.268Z,95.06
2022-10-18T05:09:07.708Z,95.22
2022-10-18T05:11:53.232Z,95.32
2022-10-18T05:14:38.524Z,95.20
2022-10-18T05:17:24.007Z,95.23
2022-10-18T05:20:10.095Z,95.37
2022-10-18T05:22:55.475Z,95.27
2022-10-18T05:25:42.403Z,95.37
2022-10-18T05:28:39.699Z,95.37
2022-10-18T05:31:26.362Z,95.00
2022-10-18T05:34:11.927Z,95.33
2022-10-18T05:36:57.498Z,95.37
2022-10-18T05:39:42.697Z,95.16
2022-10-18T05:42:28.381Z,95.34
2022-10-18T05:45:13.645Z,95.18
2022-10-18T05:47:58.928Z,95.15
2022-10-18T05:50:44.475Z,95.34
2022-10-18T05:53:36.815Z,95.53
2022-10-18T05:56:22.853Z,95.20
2022-10-18T05:59:12.382Z,95.32
2022-10-18T06:01:57.682Z,95.60
2022-10-18T06:04:43.291Z,95.49
2022-10-18T06:07:28.826Z,95.42
2022-10-18T06:10:14.369Z,95.46
2022-10-18T06:12:59.810Z,95.67
2022-10-18T06:15:45.383Z,95.37
2022-10-18T06:18:30.599Z,95.50
2022-10-18T06:21:16.617Z,95.14
2022-10-18T06:24:01.921Z,95.55
2022-10-18T06:26:47.522Z,95.52
2022-10-18T06:29:32.741Z,95.36
2022-10-18T06:32:18.726Z,95.49
2022-10-18T06:35:04.413Z,95.45
2022-10-18T06:37:49.726Z,95.67
2022-10-18T06:40:38.216Z,95.47
2022-10-18T06:43:24.276Z,95.88
2022-10-18T06:46:09.918Z,95.99
2022-10-18T06:48:55.770Z,95.70
2022-10-18T06:51:42.892Z,96.20
2022-10-18T06:54:28.305Z,95.91
2022-10-18T06:57:13.827Z,96.15
2022-10-18T06:59:59.297Z,96.33
2022-10-18T07:02:44.820Z,95.88
2022-10-18T07:08:21.946Z,95.91
2022-10-18T07:11:08.994Z,96.63
2022-10-18T07:14:00.919Z,96.52
2022-10-18T07:16:46.438Z,96.16
2022-10-18T07:19:31.904Z,96.49
2022-10-18T07:22:17.421Z,96.31
2022-10-18T07:25:03.063Z,96.27
2022-10-18T07:27:48.256Z,96.19
2022-10-18T07:30:34.255Z,96.79
2022-10-18T07:33:20.673Z,96.32
2022-10-18T07:36:08.631Z,96.58
2022-10-18T07:38:54.058Z,96.03
2022-10-18T07:41:39.829Z,96.19
2022-10-18T07:44:26.065Z,97.02
2022-10-18T07:47:11.869Z,96.34
2022-10-18T07:49:57.017Z,96.37
2022-10-18T07:52:42.496Z,96.24
2022-10-18T07:55:27.951Z,96.42
2022-10-18T07:58:13.582Z,96.49
2022-10-18T08:01:03.636Z,96.64
2022-10-18T08:03:49.646Z,97.07
2022-10-18T08:06:35.251Z,97.08
2022-10-18T08:09:20.671Z,97.05
2022-10-18T08:12:06.229Z,96.61
2022-10-18T08:14:51.715Z,96.77
2022-10-18T08:17:37.373Z,96.96
2022-10-18T08:20:31.374Z,96.86
2022-10-18T08:23:17.046Z,96.72
2022-10-18T08:26:06.908Z,97.10
2022-10-18T08:28:54.291Z,97.15
2022-10-18T08:31:44.075Z,96.56
2022-10-18T08:34:29.449Z,96.66
2022-10-18T08:37:14.721Z,96.90
2022-10-18T08:40:00.275Z,96.68
2022-10-18T08:43:22.632Z,96.81
2022-10-18T08:46:12.638Z,96.17
2022-10-18T08:49:00.006Z,96.46
2022-10-18T08:51:50.582Z,96.52
2022-10-18T08:54:41.818Z,96.37
2022-10-18T08:57:27.602Z,96.55
2022-10-18T09:00:21.869Z,96.26
2022-10-18T09:03:29.888Z,96.23
2022-10-18T09:06:46.533Z,96.62
2022-10-18T09:09:46.830Z,96.65
2022-10-18T09:12:38.509Z,96.34
2022-10-18T09:15:30.017Z,96.11
2022-10-18T09:18:51.640Z,95.96
2022-10-18T09:21:53.687Z,96.20
2022-10-18T09:24:40.386Z,96.05
2022-10-18T09:27:54.464Z,95.72
2022-10-18T09:31:04.143Z,96.28
2022-10-18T09:34:02.006Z,95.84
2022-10-18T09:36:51.190Z,96.06
2022-10-18T09:39:39.264Z,95.87
2022-10-18T09:42:39.538Z,95.63
2022-10-18T09:45:33.961Z,96.05
2022-10-18T09:48:34.737Z,95.77
2022-10-18T09:51:28.772Z,96.23
2022-10-18T09:54:17.490Z,95.31
2022-10-18T09:57:08.273Z,96.30
2022-10-18T09:59:53.759Z,95.52
2022-10-18T10:02:39.142Z,95.80
2022-10-18T10:05:24.510Z,95.45
2022-10-18T10:08:10.457Z,95.84
2022-10-18T10:10:56.599Z,95.86
2022-10-18T10:13:42.216Z,96.04
2022-10-18T10:16:28.131Z,95.93
2022-10-18T10:19:18.888Z,95.73
2022-10-18T10:22:11.364Z,95.95
2022-10-18T10:24:57.199Z,95.32
2022-10-18T10:27:46.686Z,95.14
2022-10-18T10:30:38.521Z,95.96
2022-10-18T10:33:36.436Z,95.41
2022-10-18T10:36:21.938Z,94.91
2022-10-18T10:39:19.173Z,94.84
2022-10-18T10:42:06.867Z,95.47
2022-10-18T10:44:55.670Z,95.26
2022-10-18T10:47:41.122Z,95.26
2022-10-18T10:50:29.054Z,94.92
2022-10-18T10:53:50.213Z,94.65
2022-10-18T10:56:50.131Z,95.07
2022-10-18T10:59:47.220Z,95.12
2022-10-18T11:02:35.619Z,94.79
2022-10-18T11:05:29.538Z,94.65
2022-10-18T11:08:23.913Z,94.79
2022-10-18T11:11:22.883Z,94.85
2022-10-18T11:14:27.323Z,94.58
2022-10-18T11:17:23.625Z,94.70
2022-10-18T11:20:37.990Z,94.06
2022-10-18T11:23:30.841Z,94.64
2022-10-18T11:26:59.549Z,94.39
2022-10-18T11:30:29.539Z,94.31
2022-10-18T11:34:10.393Z,94.40
2022-10-18T11:37:34.667Z,93.93
2022-10-18T11:40:36.289Z,93.68
2022-10-18T11:44:01.317Z,93.57
2022-10-18T11:47:21.206Z,93.16
2022-10-18T11:50:09.801Z,93.21
2022-10-18T11:53:07.253Z,92.80
2022-10-18T11:56:04.749Z,92.54
2022-10-18T11:58:59.623Z,92.31
2022-10-18T12:02:14.872Z,91.89
2022-10-18T12:08:27.026Z,91.11
2022-10-18T12:11:21.161Z,90.88
2022-10-18T12:14:29.126Z,89.53
2022-10-18T12:17:43.952Z,89.67
2022-10-18T12:20:40.078Z,89.84
2022-10-18T12:23:42.995Z,89.79
2022-10-18T12:26:29.763Z,90.54
2022-10-18T12:29:28.081Z,89.65
2022-10-18T12:32:19.011Z,90.44
2022-10-18T12:35:14.711Z,89.64
2022-10-18T12:38:14.833Z,89.98
2022-10-18T12:41:01.322Z,89.76
2022-10-18T12:43:57.070Z,89.12
2022-10-18T12:46:52.331Z,89.03
2022-10-18T12:49:41.482Z,89.36
2022-10-18T12:52:33.996Z,89.67
2022-10-18T12:55:19.826Z,88.93
2022-10-18T12:58:14.866Z,88.56
2022-10-18T13:01:03.244Z,89.01
2022-10-18T13:03:56.912Z,87.68
2022-10-18T13:07:00.794Z,85.49
2022-10-18T13:10:12.477Z,84.42
2022-10-18T13:13:39.137Z,85.79
2022-10-18T13:16:49.101Z,85.88
2022-10-18T13:20:24.128Z,85.23
2022-10-18T13:23:39.537Z,83.98
2022-10-18T13:26:42.440Z,83.62
2022-10-18T13:29:56.543Z,84.26
2022-10-18T13:32:53.963Z,85.94
2022-10-18T13:36:22.498Z,84.57
2022-10-18T13:39:20.108Z,84.75
2022-10-18T13:42:20.337Z,84.44
2022-10-18T13:45:33.676Z,83.60
2022-10-18T13:48:31.335Z,84.99
2022-10-18T13:51:46.111Z,85.04
2022-10-18T13:54:53.239Z,84.56
2022-10-18T13:57:47.332Z,86.66
2022-10-18T14:01:11.480Z,83.97
2022-10-18T14:04:15.990Z,86.20
2022-10-18T14:07:05.044Z,86.24
2022-10-18T14:09:57.584Z,85.93
2022-10-18T14:12:54.169Z,85.60
2022-10-18T14:15:41.951Z,86.05
2022-10-18T14:18:31.975Z,85.67
2022-10-18T14:21:30.278Z,85.79
2022-10-18T14:24:25.369Z,85.14
2022-10-18T14:27:25.175Z,85.02
2022-10-18T14:30:15.907Z,86.28
2022-10-18T14:33:02.357Z,86.40
2022-10-18T14:35:59.689Z,85.40
2022-10-18T14:39:06.033Z,84.75
2022-10-18T14:41:56.293Z,87.13
2022-10-18T14:44:42.183Z,86.92
2022-10-18T14:47:30.345Z,87.54
2022-10-18T14:50:30.535Z,86.88
2022-10-18T14:53:25.272Z,87.01
2022-10-18T14:56:22.226Z,86.71
2022-10-18T14:59:33.548Z,86.06
2022-10-18T15:02:24.080Z,87.31
2022-10-18T15:05:20.895Z,86.75
2022-10-18T15:08:06.074Z,87.46
2022-10-18T15:10:52.355Z,87.34
2022-10-18T15:13:46.818Z,87.98
2022-10-18T15:16:33.033Z,87.83
2022-10-18T15:19:18.440Z,88.37
2022-10-18T15:22:30.717Z,88.60
2022-10-18T15:25:32.135Z,87.73
2022-10-18T15:28:31.278Z,88.57
2022-10-18T15:31:35.017Z,88.58
2022-10-18T15:34:23.776Z,88.99
2022-10-18T15:37:37.616Z,88.99
2022-10-18T15:40:22.804Z,89.53
2022-10-18T15:43:24.431Z,89.16
2022-10-18T15:46:30.456Z,89.26
2022-10-18T15:49:25.045Z,89.31
2022-10-18T15:52:19.506Z,89.88
2022-10-18T15:55:29.134Z,89.68
2022-10-18T15:58:17.779Z,89.95
2022-10-18T16:01:04.540Z,90.44
2022-10-18T16:03:51.812Z,90.27
2022-10-18T16:06:38.627Z,90.49
2022-10-18T16:09:26.699Z,90.11
2022-10-18T16:12:12.412Z,90.71
2022-10-18T16:14:57.972Z,90.29
2022-10-18T16:17:43.466Z,91.01
2022-10-18T16:20:28.832Z,90.76
2022-10-18T16:23:17.555Z,90.95
2022-10-18T16:26:03.459Z,90.93
2022-10-18T16:28:49.528Z,91.25
2022-10-18T16:31:35.309Z,91.06
2022-10-18T16:34:20.623Z,91.56
2022-10-18T16:37:06.065Z,91.32
2022-10-18T16:39:51.554Z,91.20
2022-10-18T16:42:37.105Z,91.03
2022-10-18T16:45:22.667Z,91.33
2022-10-18T16:48:13.175Z,91.96
2022-10-18T16:50:59.067Z,91.36
2022-10-18T16:53:44.855Z,91.17
2022-10-18T16:56:32.214Z,91.12
2022-10-18T16:59:29.088Z,90.99
2022-10-18T17:02:14.735Z,91.59
2022-10-18T17:05:00.177Z,91.75
2022-10-18T17:07:46.875Z,91.59
2022-10-18T17:10:32.558Z,91.34
2022-10-18T17:13:17.524Z,91.29
2022-10-18T17:16:03.973Z,91.31
2022-10-18T17:18:49.365Z,91.36
2022-10-18T17:21:35.194Z,91.13
2022-10-18T17:24:20.722Z,91.44
2022-10-18T17:27:06.339Z,91.36
2022-10-18T17:29:51.671Z,91.45
2022-10-18T17:32:37.400Z,91.57
2022-10-18T17:35:22.906Z,91.79
2022-10-18T17:38:08.261Z,91.40
2022-10-18T17:40:54.515Z,91.94
2022-10-18T17:46:31.775Z,91.80
2022-10-18T17:49:18.267Z,91.72
2022-10-18T17:52:06.897Z,91.88
2022-10-18T17:54:52.477Z,91.49
2022-10-18T17:57:39.548Z,91.73
2022-10-18T18:00:25.045Z,91.23
2022-10-18T18:03:10.974Z,91.71
2022-10-18T18:05:56.327Z,91.75
2022-10-18T18:08:41.857Z,91.74
2022-10-18T18:11:28.576Z,91.74
2022-10-18T18:14:16.184Z,91.52
2022-10-18T18:17:03.369Z,91.45
2022-10-18T18:19:49.103Z,92.10
2022-10-18T18:22:36.868Z,92.01
2022-10-18T18:25:24.579Z,92.17
2022-10-18T18:28:13.103Z,91.82
2022-10-18T18:30:58.800Z,91.79
2022-10-18T18:33:44.897Z,91.85
2022-10-18T18:36:32.690Z,91.56
2022-10-18T18:39:26.758Z,91.65
2022-10-18T18:42:12.833Z,92.02
2022-10-18T18:45:01.206Z,92.52
2022-10-18T18:47:47.071Z,92.74
2022-10-18T18:50:33.212Z,92.71
2022-10-18T18:53:19.819Z,92.78
2022-10-18T18:56:08.493Z,92.42
2022-10-18T18:58:54.526Z,92.63
2022-10-18T19:01:41.056Z,92.38
2022-10-18T19:04:26.811Z,92.42
2022-10-18T19:07:13.502Z,92.49
2022-10-18T19:09:59.682Z,92.33
2022-10-18T19:12:45.548Z,92.19
2022-10-18T19:15:31.197Z,92.27
2022-10-18T19:18:23.114Z,92.50
2022-10-18T19:21:09.386Z,92.47
2022-10-18T19:23:56.569Z,93.03
2022-10-18T19:26:49.338Z,92.57
2022-10-18T19:29:36.847Z,92.54
2022-10-18T19:32:22.589Z,92.91
2022-10-18T19:35:09.879Z,92.57
2022-10-18T19:37:55.463Z,92.51
2022-10-18T19:40:40.826Z,93.07
2022-10-18T19:43:26.377Z,92.42
2022-10-18T19:46:12.106Z,93.36
2022-10-18T19:48:58.616Z,93.13
2022-10-18T19:51:44.602Z,92.89
2022-10-18T19:54:29.831Z,93.15
2022-10-18T19:57:15.372Z,92.97
2022-10-18T20:00:01.018Z,93.41
2022-10-18T20:02:57.270Z,93.18
2022-10-18T20:05:42.657Z,92.99
2022-10-18T20:08:30.565Z,93.47
2022-10-18T20:11:19.025Z,93.70
2022-10-18T20:14:09.615Z,93.47
2022-10-18T20:16:55.027Z,93.05
2022-10-18T20:19:40.563Z,92.86
2022-10-18T20:22:26.041Z,93.38
2022-10-18T20:25:11.566Z,93.36
2022-10-18T20:27:57.117Z,93.53
2022-10-18T20:30:42.418Z,93.27
2022-10-18T20:33:28.275Z,93.14
2022-10-18T20:36:16.331Z,93.49
2022-10-18T20:39:02.316Z,94.07
2022-10-18T20:41:47.868Z,93.64
2022-10-18T20:44:34.088Z,93.45
2022-10-18T20:47:19.652Z,93.18
2022-10-18T20:50:05.556Z,94.15
2022-10-18T20:52:51.445Z,93.61
2022-10-18T20:55:38.840Z,93.63
2022-10-18T20:58:24.078Z,94.02
2022-10-18T21:01:20.871Z,93.71
2022-10-18T21:04:08.730Z,93.68
2022-10-18T21:06:54.342Z,94.04
2022-10-18T21:09:39.760Z,93.54
2022-10-18T21:12:27.536Z,93.76
2022-10-18T21:15:15.045Z,93.90
2022-10-18T21:18:00.469Z,94.21
2022-10-18T21:20:45.861Z,93.91
2022-10-18T21:23:31.319Z,93.94
2022-10-18T21:26:19.629Z,93.69
2022-10-18T21:29:05.640Z,94.47
2022-10-18T21:31:55.131Z,93.98
2022-10-18T21:34:40.349Z,94.27
2022-10-18T21:37:25.826Z,94.49
2022-10-18T21:40:11.491Z,94.05
2022-10-18T21:42:57.251Z,93.55
2022-10-18T21:45:42.530Z,93.87
2022-10-18T21:48:28.524Z,93.46
2022-10-18T21:51:16.320Z,94.07
2022-10-18T21:54:02.118Z,94.43
2022-10-18T21:56:47.266Z,93.92
2022-10-18T21:59:32.618Z,94.34
2022-10-18T22:02:18.022Z,93.97
2022-10-18T22:05:07.028Z,94.46
2022-10-18T22:07:55.247Z,93.78
2022-10-18T22:10:40.699Z,93.71
2022-10-18T22:13:26.820Z,94.05
2022-10-18T22:16:14.602Z,93.68
2022-10-18T22:19:01.995Z,93.94
2022-10-18T22:21:48.021Z,94.49
2022-10-18T22:24:33.182Z,94.11
2022-10-18T22:27:18.691Z,93.92
2022-10-18T22:30:04.739Z,94.27
2022-10-18T22:32:50.063Z,94.12
2022-10-18T22:35:35.561Z,93.81
2022-10-18T22:38:21.136Z,93.90
2022-10-18T22:41:07.505Z,94.13
2022-10-18T22:43:53.615Z,94.00
2022-10-18T22:46:40.389Z,94.12
2022-10-18T22:49:26.203Z,94.37
2022-10-18T22:52:11.426Z,94.60
2022-10-18T22:54:56.901Z,94.67
2022-10-18T22:57:42.305Z,94.43
2022-10-18T23:00:27.719Z,93.65
2022-10-18T23:03:16.266Z,93.94
2022-10-18T23:06:02.627Z,94.22
2022-10-18T23:08:48.310Z,94.25
2022-10-18T23:11:35.706Z,94.17
2022-10-18T23:14:21.585Z,94.23
2022-10-18T23:17:07.349Z,94.59
2022-10-18T23:19:52.864Z,94.30
2022-10-18T23:22:38.330Z,94.04
2022-10-18T23:25:24.041Z,94.21
2022-10-18T23:28:09.511Z,94.35
2022-10-18T23:30:55.270Z,94.03
2022-10-18T23:33:40.986Z,93.70
2022-10-18T23:36:27.108Z,93.95
2022-10-18T23:39:12.623Z,94.03
2022-10-18T23:41:58.128Z,94.42
2022-10-18T23:44:43.827Z,94.34
2022-10-18T23:47:29.245Z,94.83
2022-10-18T23:50:14.954Z,94.23
2022-10-18T23:53:00.481Z,94.42
2022-10-18T23:56:06.831Z,94.08
2022-10-18T23:58:52.727Z,94.99
